Time;durP1;ratioP1;P1;durP2;ratioP2;P2;SDS_P1;SDS_P2;PMS_P1;PMS_P2;Temp;Humidity;BMP_temperature;BMP_pressure;BME280_temperature;BME280_humidity;BME280_pressure;Samples;Min_cycle;Max_cycle;Signal;HPM_P1;HPM_P2
2022/11/16 00:02:10;;;;;;;;;;;;;;;;;;5047526;28;1074;-76
2022/11/16 00:04:37;;;;;;;;;;;;;;;;;;5053049;28;1233;-76
2022/11/16 00:07:05;;;;;;;;;;;;;;;;;;5051418;28;1916;-75
2022/11/16 00:09:31;;;;;;;;;;;;;;;;;;5052246;28;1192;-76
2022/11/16 00:11:58;;;;;;;;;;;;;;;;;;5047666;28;1151;-75
2022/11/16 00:14:25;;;;;;;;;;;;;;;;;;5048297;28;1902;-78
2022/11/16 00:16:51;;;;;;;;;;;;;;;;;;5047761;28;1407;-75
2022/11/16 00:19:18;;;;;;;;;;;;;;;;;;5047315;28;906;-75
2022/11/16 00:21:44;;;;;;;;;;;;;;;;;;5051484;28;965;-75
2022/11/16 00:24:13;;;;;;;;;;;;;;;;;;5050349;28;886;-75
2022/11/16 00:26:39;;;;;;;;;;;;;;;;;;5047390;28;1376;-76
2022/11/16 00:29:06;;;;;;;;;;;;;;;;;;5049769;28;1153;-76
2022/11/16 00:31:32;;;;;;;;;;;;;;;;;;5050023;28;1134;-75
2022/11/16 00:33:58;;;;;;;;;;;;;;;;;;5052299;28;1914;-75
2022/11/16 00:36:24;;;;;;;;;;;;;;;;;;5050999;28;1406;-75
2022/11/16 00:38:51;;;;;;;;;;;;;;;;;;5048571;28;1277;-75
2022/11/16 00:41:20;;;;;;;;;;;;;;;;;;5046605;28;881;-76
2022/11/16 00:43:46;;;;;;;;;;;;;;;;;;5049327;28;758;-75
2022/11/16 00:46:12;;;;;;;;;;;;;;;;;;5047298;28;2036;-76
2022/11/16 00:48:39;;;;;;;;;;;;;;;;;;5049072;28;1486;-75
2022/11/16 00:51:06;;;;;;;;;;;;;;;;;;5046478;28;1254;-75
2022/11/16 00:53:32;;;;;;;;;;;;;;;;;;5045823;28;1910;-75
2022/11/16 00:55:58;;;;;;;;;;;;;;;;;;5046182;28;1224;-75
2022/11/16 00:58:26;;;;;;;;;;;;;;;;;;5046573;28;1503;-75
2022/11/16 01:01:03;;;;;;;;;;;;;;;;;;5047943;28;1508;-75
2022/11/16 01:03:29;;;;;;;;;;;;;;;;;;5048800;28;1237;-75
2022/11/16 01:05:59;;;;;;;;;;;;;;;;;;5046343;28;1268;-75
2022/11/16 01:08:25;;;;;;;;;;;;;;;;;;5045886;28;1300;-76
2022/11/16 01:10:53;;;;;;;;;;;;;;;;;;5046052;28;1220;-76
2022/11/16 01:13:18;;;;;;;;;;;;;;;;;;5044608;28;1910;-75
2022/11/16 01:15:48;;;;;;;;;;;;;;;;;;5046035;28;1285;-75
2022/11/16 01:18:14;;;;;;;;;;;;;;;;;;5045760;28;1323;-76
2022/11/16 01:20:40;;;;;;;;;;;;;;;;;;5046108;28;1223;-76
2022/11/16 01:23:06;;;;;;;;;;;;;;;;;;5047661;28;1716;-76
2022/11/16 01:25:33;;;;;;;;;;;;;;;;;;5051411;28;992;-76
2022/11/16 01:27:59;;;;;;;;;;;;;;;;;;5050043;28;1411;-75
2022/11/16 01:30:37;;;;;;;;;;;;;;;;;;5047972;28;2064;-75
2022/11/16 01:33:10;;;;;;;;;;;;;;;;;;5049695;28;1973;-75
2022/11/16 01:35:36;;;;;;;;;;;;;;;;;;5065044;28;1288;-75
2022/11/16 01:38:03;;;;;;;;;;;;;;;;;;5070269;28;1298;-75
2022/11/16 01:40:32;;;;;;;;;;;;;;;;;;5065687;28;1342;-76
2022/11/16 01:42:58;;;;;;;;;;;;;;;;;;5068211;28;1082;-76
2022/11/16 01:45:25;;;;;;;;;;;;;;;;;;5070980;28;1250;-76
2022/11/16 01:47:55;;;;;;;;;;;;;;;;;;5069947;28;1361;-75
2022/11/16 01:50:26;;;;;;;;;;;;;;;;;;5066094;28;1034;-76
2022/11/16 01:52:53;;;;;;;;;;;;;;;;;;5067768;28;1660;-76
2022/11/16 01:55:20;;;;;;;;;;;;;;;;;;5066774;28;1894;-75
2022/11/16 01:58:07;;;;;;;;;;;;;;;;;;5045312;28;1351;-75
2022/11/16 02:00:36;;;;;;;;;;;;;;;;;;5046621;28;992;-76
2022/11/16 02:03:21;;;;;;;;;;;;;;;;;;5044604;28;1369;-76
2022/11/16 02:05:57;;;;;;;;;;;;;;;;;;5045282;28;1501;-76
2022/11/16 02:11:26;;;;;;;;;;;;;;;;;;5044575;28;1349;-75
2022/11/16 02:13:55;;;;;;;;;;;;;;;;;;5046510;28;1922;-75
2022/11/16 02:16:23;;;;;;;;;;;;;;;;;;5047975;28;1305;-75
2022/11/16 02:18:51;;;;;;;;;;;;;;;;;;5046923;28;1187;-76
2022/11/16 02:21:24;;;;;;;;;;;;;;;;;;5043195;28;1458;-76
2022/11/16 02:24:02;;;;;;;;;;;;;;;;;;5045269;28;1258;-76
2022/11/16 02:26:34;;;;;;;;;;;;;;;;;;5044704;28;1308;-76
2022/11/16 02:29:12;;;;;;;;;;;;;;;;;;5047458;28;747;-76
2022/11/16 02:31:40;;;;;;;;;;;;;;;;;;5049105;28;1328;-76
2022/11/16 02:34:07;;;;;;;;;;;;;;;;;;5049905;28;1977;-76
2022/11/16 02:36:35;;;;;;;;;;;;;;;;;;5048885;28;1375;-75
2022/11/16 02:39:02;;;;;;;;;;;;;;;;;;5049669;28;1249;-76
2022/11/16 02:41:31;;;;;;;;;;;;;;;;;;5049514;28;1033;-76
2022/11/16 02:43:59;;;;;;;;;;;;;;;;;;5050245;28;857;-75
2022/11/16 02:46:28;;;;;;;;;;;;;;;;;;5050566;28;1383;-74
2022/11/16 02:48:56;;;;;;;;;;;;;;;;;;5048160;28;1174;-76
2022/11/16 02:51:22;;;;;;;;;;;;;;;;;;5048495;28;1095;-75
2022/11/16 02:53:52;;;;;;;;;;;;;;;;;;5048792;28;1989;-74
2022/11/16 02:56:19;;;;;;;;;;;;;;;;;;5048443;28;1340;-77
2022/11/16 02:58:46;;;;;;;;;;;;;;;;;;5047703;28;1320;-75
2022/11/16 03:01:12;;;;;;;;;;;;;;;;;;5048421;28;1091;-75
2022/11/16 03:03:41;;;;;;;;;;;;;;;;;;5047656;28;1281;-75
2022/11/16 03:06:10;;;;;;;;;;;;;;;;;;5050580;28;1303;-76
2022/11/16 03:08:38;;;;;;;;;;;;;;;;;;5049555;28;1301;-77
2022/11/16 03:13:52;;;;;;;;;;;;;;;;;;5052814;28;1894;-75
2022/11/16 03:16:19;;;;;;;;;;;;;;;;;;5052183;28;1376;-76
2022/11/16 03:18:47;;;;;;;;;;;;;;;;;;5052687;28;1145;-76
2022/11/16 03:21:16;;;;;;;;;;;;;;;;;;5069674;22;3766;-77
2022/11/16 03:23:43;;;;;;;;;;;;;;;;;;5054654;28;1725;-77
2022/11/16 03:26:09;;;;;;;;;;;;;;;;;;5075640;28;1078;-79
2022/11/16 03:28:36;;;;;;;;;;;;;;;;;;5059876;28;1110;-79
2022/11/16 03:31:04;;;;;;;;;;;;;;;;;;5082107;28;1470;-79
2022/11/16 03:33:32;;;;;;;;;;;;;;;;;;5083585;28;1162;-78
2022/11/16 03:36:01;;;;;;;;;;;;;;;;;;5085095;28;2000;-79
2022/11/16 03:38:30;;;;;;;;;;;;;;;;;;5082626;28;1227;-79
2022/11/16 03:40:56;;;;;;;;;;;;;;;;;;5083687;28;1371;-79
2022/11/16 03:43:23;;;;;;;;;;;;;;;;;;5083103;28;1964;-80
2022/11/16 03:45:52;;;;;;;;;;;;;;;;;;5075958;28;1971;-79
2022/11/16 03:48:18;;;;;;;;;;;;;;;;;;5078117;28;1737;-78
2022/11/16 03:50:45;;;;;;;;;;;;;;;;;;5076011;28;1325;-79
2022/11/16 03:53:14;;;;;;;;;;;;;;;;;;5063549;28;1365;-79
2022/11/16 03:55:40;;;;;;;;;;;;;;;;;;5064838;28;2018;-77
2022/11/16 03:58:08;;;;;;;;;;;;;;;;;;5062844;28;1438;-79
2022/11/16 04:00:34;;;;;;;;;;;;;;;;;;5064926;28;1217;-79
2022/11/16 04:03:07;;;;;;;;;;;;;;;;;;5061503;28;1538;-78
2022/11/16 04:24:47;;;;;;;;;;;;;;;;;;5059420;28;1505;-79
2022/11/16 04:29:58;;;;;;;;;;;;;;;;;;5058315;28;1501;-78
2022/11/16 04:37:54;;;;;;;;;;;;;;;;;;5058544;28;1479;-79
2022/11/16 04:40:28;;;;;;;;;;;;;;;;;;5069354;28;1423;-80
2022/11/16 04:42:56;;;;;;;;;;;;;;;;;;5058104;28;1414;-80
2022/11/16 04:48:07;;;;;;;;;;;;;;;;;;5057159;28;1479;-81
2022/11/16 04:50:35;;;;;;;;;;;;;;;;;;5058210;28;1185;-77
2022/11/16 04:53:02;;;;;;;;;;;;;;;;;;5055015;28;1490;-78
2022/11/16 04:55:31;;;;;;;;;;;;;;;;;;5056299;28;1969;-80
2022/11/16 04:57:57;;;;;;;;;;;;;;;;;;5055274;28;1382;-80
2022/11/16 05:00:24;;;;;;;;;;;;;;;;;;5056304;28;1640;-78
2022/11/16 05:02:51;;;;;;;;;;;;;;;;;;5056092;28;1390;-80
2022/11/16 05:05:17;;;;;;;;;;;;;;;;;;5058198;28;1328;-80
2022/11/16 05:07:46;;;;;;;;;;;;;;;;;;5056973;28;1498;-79
2022/11/16 05:10:18;;;;;;;;;;;;;;;;;;5050204;28;1374;-80
2022/11/16 05:12:46;;;;;;;;;;;;;;;;;;5050527;28;1418;-79
2022/11/16 05:15:13;;;;;;;;;;;;;;;;;;5058953;28;1894;-80
2022/11/16 05:17:39;;;;;;;;;;;;;;;;;;5078386;28;1229;-79
2022/11/16 05:23:00;;;;;;;;;;;;;;;;;;5058773;28;1490;-79
2022/11/16 05:25:29;;;;;;;;;;;;;;;;;;5059813;28;1329;-79
2022/11/16 05:27:59;;;;;;;;;;;;;;;;;;5058888;28;2025;-79
2022/11/16 05:30:27;;;;;;;;;;;;;;;;;;5057434;28;1259;-78
2022/11/16 05:32:53;;;;;;;;;;;;;;;;;;5055965;28;1440;-78
2022/11/16 05:35:21;;;;;;;;;;;;;;;;;;5056717;28;1910;-79
2022/11/16 05:37:47;;;;;;;;;;;;;;;;;;5077550;28;1545;-79
2022/11/16 05:40:13;;;;;;;;;;;;;;;;;;5056379;28;1158;-79
2022/11/16 05:42:46;;;;;;;;;;;;;;;;;;5072992;28;1399;-79
2022/11/16 05:45:14;;;;;;;;;;;;;;;;;;5057327;28;1415;-79
2022/11/16 05:47:40;;;;;;;;;;;;;;;;;;5072602;28;1282;-79
2022/11/16 05:50:08;;;;;;;;;;;;;;;;;;5057508;28;1539;-79
2022/11/16 05:52:38;;;;;;;;;;;;;;;;;;5054131;28;1393;-79
2022/11/16 05:55:09;;;;;;;;;;;;;;;;;;5059037;28;1980;-79
2022/11/16 05:57:41;;;;;;;;;;;;;;;;;;5058836;28;1296;-79
2022/11/16 06:00:07;;;;;;;;;;;;;;;;;;5057904;28;1257;-80
2022/11/16 06:02:42;;;;;;;;;;;;;;;;;;5075096;28;1450;-79
2022/11/16 06:05:17;;;;;;;;;;;;;;;;;;5071584;28;1098;-79
2022/11/16 06:07:43;;;;;;;;;;;;;;;;;;5082676;28;1053;-80
2022/11/16 06:10:09;;;;;;;;;;;;;;;;;;5087824;28;1013;-79
2022/11/16 06:12:36;;;;;;;;;;;;;;;;;;5058803;28;1428;-80
2022/11/16 06:15:03;;;;;;;;;;;;;;;;;;5056869;28;1997;-81
2022/11/16 06:17:32;;;;;;;;;;;;;;;;;;5060450;28;1227;-80
2022/11/16 06:20:00;;;;;;;;;;;;;;;;;;5059554;28;1298;-80
2022/11/16 06:22:26;;;;;;;;;;;;;;;;;;5059584;28;1361;-80
2022/11/16 06:24:52;;;;;;;;;;;;;;;;;;5078639;28;795;-78
2022/11/16 06:27:19;;;;;;;;;;;;;;;;;;5059949;28;1277;-79
2022/11/16 06:29:46;;;;;;;;;;;;;;;;;;5059897;28;1175;-81
2022/11/16 06:32:13;;;;;;;;;;;;;;;;;;5059807;28;1370;-82
2022/11/16 06:34:40;;;;;;;;;;;;;;;;;;5060181;28;1909;-80
2022/11/16 06:37:09;;;;;;;;;;;;;;;;;;5059936;28;1184;-80
2022/11/16 06:39:35;;;;;;;;;;;;;;;;;;5059403;28;1283;-79
2022/11/16 06:42:01;;;;;;;;;;;;;;;;;;5061839;28;1418;-79
2022/11/16 06:44:28;;;;;;;;;;;;;;;;;;5068796;28;1481;-79
2022/11/16 06:46:59;;;;;;;;;;;;;;;;;;5072423;28;1187;-79
2022/11/16 06:49:26;;;;;;;;;;;;;;;;;;5063015;28;1304;-79
2022/11/16 06:51:56;;;;;;;;;;;;;;;;;;5059786;28;1631;-79
2022/11/16 06:54:24;;;;;;;;;;;;;;;;;;5059854;28;1369;-78
2022/11/16 06:56:51;;;;;;;;;;;;;;;;;;5068949;28;1906;-79
2022/11/16 06:59:17;;;;;;;;;;;;;;;;;;5081418;28;1558;-80
2022/11/16 07:01:45;;;;;;;;;;;;;;;;;;5074711;28;1324;-79
2022/11/16 07:04:13;;;;;;;;;;;;;;;;;;5063669;28;1338;-79
2022/11/16 07:06:43;;;;;;;;;;;;;;;;;;5060747;28;1007;-78
2022/11/16 07:09:13;;;;;;;;;;;;;;;;;;5058663;28;1097;-79
2022/11/16 07:11:41;;;;;;;;;;;;;;;;;;5075414;28;1420;-79
2022/11/16 07:14:07;;;;;;;;;;;;;;;;;;5076288;28;825;-79
2022/11/16 07:16:34;;;;;;;;;;;;;;;;;;5057748;28;1977;-79
2022/11/16 07:19:01;;;;;;;;;;;;;;;;;;5059091;28;1360;-79
2022/11/16 07:21:30;;;;;;;;;;;;;;;;;;5060457;28;1722;-79
2022/11/16 07:23:58;;;;;;;;;;;;;;;;;;5080518;28;1157;-79
2022/11/16 07:26:25;;;;;;;;;;;;;;;;;;5074479;28;1359;-79
2022/11/16 07:29:00;;;;;;;;;;;;;;;;;;5058314;28;1456;-80
2022/11/16 07:31:27;;;;;;;;;;;;;;;;;;5057804;28;1344;-79
2022/11/16 07:34:32;;;;;;;;;;;;;;;;;;4994449;28;1388;-79
2022/11/16 07:37:05;;;;;;;;;;;;;;;;;;4994478;28;1987;-79
2022/11/16 07:39:32;;;;;;;;;;;;;;;;;;5019353;28;1588;-80
2022/11/16 07:41:58;;;;;;;;;;;;;;;;;;5057550;28;1697;-79
2022/11/16 07:44:30;;;;;;;;;;;;;;;;;;5055728;28;1513;-78
2022/11/16 07:47:09;;;;;;;;;;;;;;;;;;5058370;28;1617;-78
2022/11/16 07:49:35;;;;;;;;;;;;;;;;;;5055691;28;1561;-78
2022/11/16 07:52:12;;;;;;;;;;;;;;;;;;5054806;28;1488;-79
2022/11/16 07:54:45;;;;;;;;;;;;;;;;;;5065480;28;1352;-78
2022/11/16 07:57:13;;;;;;;;;;;;;;;;;;5066663;28;1922;-79
2022/11/16 07:59:42;;;;;;;;;;;;;;;;;;5068903;28;1235;-79
2022/11/16 08:02:09;;;;;;;;;;;;;;;;;;5056801;28;1349;-79
2022/11/16 08:04:37;;;;;;;;;;;;;;;;;;5056356;28;1198;-79
2022/11/16 08:07:04;;;;;;;;;;;;;;;;;;5058575;28;1250;-78
2022/11/16 08:09:36;;;;;;;;;;;;;;;;;;5057245;28;1692;-79
2022/11/16 08:12:03;;;;;;;;;;;;;;;;;;5057089;28;1543;-79
2022/11/16 08:14:31;;;;;;;;;;;;;;;;;;5057773;28;1454;-79
2022/11/16 08:16:58;;;;;;;;;;;;;;;;;;5075228;28;2348;-80
2022/11/16 08:19:24;;;;;;;;;;;;;;;;;;5056955;28;1255;-80
2022/11/16 08:21:50;;;;;;;;;;;;;;;;;;5057781;28;1344;-79
2022/11/16 08:24:17;;;;;;;;;;;;;;;;;;5060452;28;1241;-78
2022/11/16 08:26:44;;;;;;;;;;;;;;;;;;5059237;28;1144;-78
2022/11/16 08:29:14;;;;;;;;;;;;;;;;;;5061291;28;1194;-78
2022/11/16 08:31:44;;;;;;;;;;;;;;;;;;5067546;28;1316;-79
2022/11/16 08:34:18;;;;;;;;;;;;;;;;;;5065714;28;1322;-79
2022/11/16 08:36:48;;;;;;;;;;;;;;;;;;5065429;28;1922;-79
2022/11/16 08:39:16;;;;;;;;;;;;;;;;;;5065086;28;1254;-78
2022/11/16 08:41:43;;;;;;;;;;;;;;;;;;5057550;28;1341;-79
2022/11/16 08:44:10;;;;;;;;;;;;;;;;;;5057108;28;1187;-79
2022/11/16 08:46:39;;;;;;;;;;;;;;;;;;5055275;28;1456;-79
2022/11/16 08:49:15;;;;;;;;;;;;;;;;;;5065932;28;1455;-77
2022/11/16 08:51:43;;;;;;;;;;;;;;;;;;5075395;28;1387;-79
2022/11/16 08:54:09;;;;;;;;;;;;;;;;;;5076231;28;1261;-80
2022/11/16 08:56:37;;;;;;;;;;;;;;;;;;5075915;28;1895;-80
2022/11/16 08:59:04;;;;;;;;;;;;;;;;;;5077042;28;1390;-80
2022/11/16 09:01:31;;;;;;;;;;;;;;;;;;5074769;28;1387;-80
2022/11/16 09:03:58;;;;;;;;;;;;;;;;;;5083057;28;890;-79
2022/11/16 09:06:24;;;;;;;;;;;;;;;;;;5059817;28;1132;-79
2022/11/16 09:08:52;;;;;;;;;;;;;;;;;;5067549;28;1348;-79
2022/11/16 09:11:19;;;;;;;;;;;;;;;;;;5091106;28;1409;-79
2022/11/16 09:13:45;;;;;;;;;;;;;;;;;;5087274;28;1978;-80
2022/11/16 09:16:14;;;;;;;;;;;;;;;;;;5094515;28;1910;-79
2022/11/16 09:18:40;;;;;;;;;;;;;;;;;;5075451;28;1087;-79
2022/11/16 09:21:07;;;;;;;;;;;;;;;;;;5075993;28;1242;-78
2022/11/16 09:23:33;;;;;;;;;;;;;;;;;;5117384;22;1758;-76
2022/11/16 09:26:01;;;;;;;;;;;;;;;;;;5109343;28;1132;-75
2022/11/16 09:28:28;;;;;;;;;;;;;;;;;;5111836;28;888;-75
2022/11/16 09:30:58;;;;;;;;;;;;;;;;;;5111926;28;1063;-76
2022/11/16 09:33:24;;;;;;;;;;;;;;;;;;5110922;28;1312;-75
2022/11/16 09:35:50;;;;;;;;;;;;;;;;;;5111811;28;1971;-75
2022/11/16 09:38:16;;;;;;;;;;;;;;;;;;5109544;28;1202;-74
2022/11/16 09:40:44;;;;;;;;;;;;;;;;;;5111606;28;1067;-76
2022/11/16 09:43:12;;;;;;;;;;;;;;;;;;5097391;28;1776;-75
2022/11/16 09:45:40;;;;;;;;;;;;;;;;;;5089894;28;1166;-76
2022/11/16 09:48:10;;;;;;;;;;;;;;;;;;5091153;28;845;-76
2022/11/16 09:50:42;;;;;;;;;;;;;;;;;;5091255;28;1114;-75
2022/11/16 09:53:23;;;;;;;;;;;;;;;;;;5090264;28;1380;-75
2022/11/16 09:55:50;;;;;;;;;;;;;;;;;;5091431;28;1910;-77
2022/11/16 09:58:20;;;;;;;;;;;;;;;;;;5091104;28;1079;-77
2022/11/16 10:00:47;;;;;;;;;;;;;;;;;;5091000;28;1540;-77
2022/11/16 10:03:13;;;;;;;;;;;;;;;;;;5090312;28;1406;-75
2022/11/16 10:05:40;;;;;;;;;;;;;;;;;;5091259;28;798;-77
2022/11/16 10:08:10;;;;;;;;;;;;;;;;;;5089875;28;948;-76
2022/11/16 10:10:36;;;;;;;;;;;;;;;;;;5091312;28;899;-77
2022/11/16 10:13:03;;;;;;;;;;;;;;;;;;5090253;28;1433;-76
2022/11/16 10:15:42;;;;;;;;;;;;;;;;;;5091168;28;1075;-77
2022/11/16 10:18:12;;;;;;;;;;;;;;;;;;5090606;28;948;-77
2022/11/16 10:20:57;;;;;;;;;;;;;;;;;;5091565;28;1087;-77
2022/11/16 10:23:27;;;;;;;;;;;;;;;;;;5059343;28;1401;-77
2022/11/16 10:25:54;;;;;;;;;;;;;;;;;;5089647;28;1201;-77
2022/11/16 10:28:29;;;;;;;;;;;;;;;;;;5089426;28;1215;-77
2022/11/16 10:30:58;;;;;;;;;;;;;;;;;;5090726;28;940;-77
2022/11/16 10:33:24;;;;;;;;;;;;;;;;;;5089831;28;1739;-76
2022/11/16 10:35:52;;;;;;;;;;;;;;;;;;5090797;28;2013;-77
2022/11/16 10:38:19;;;;;;;;;;;;;;;;;;5090683;28;1079;-77
2022/11/16 10:40:46;;;;;;;;;;;;;;;;;;5090732;28;1141;-77
2022/11/16 10:43:13;;;;;;;;;;;;;;;;;;5090749;28;1414;-75
2022/11/16 10:45:40;;;;;;;;;;;;;;;;;;5090303;28;937;-76
2022/11/16 10:48:12;;;;;;;;;;;;;;;;;;5089848;28;1103;-77
2022/11/16 10:50:39;;;;;;;;;;;;;;;;;;5092539;28;1082;-77
2022/11/16 10:53:05;;;;;;;;;;;;;;;;;;5093136;28;1396;-77
2022/11/16 10:55:31;;;;;;;;;;;;;;;;;;5094305;28;1157;-77
2022/11/16 10:57:59;;;;;;;;;;;;;;;;;;5094123;28;2051;-77
2022/11/16 11:00:36;;;;;;;;;;;;;;;;;;5094322;28;713;-75
2022/11/16 11:03:02;;;;;;;;;;;;;;;;;;5092116;28;1416;-75
2022/11/16 11:05:30;;;;;;;;;;;;;;;;;;5094127;28;786;-77
2022/11/16 11:08:00;;;;;;;;;;;;;;;;;;5094175;28;1146;-77
2022/11/16 11:10:28;;;;;;;;;;;;;;;;;;5094192;28;940;-77
2022/11/16 11:13:01;;;;;;;;;;;;;;;;;;5093022;28;1351;-76
2022/11/16 11:15:28;;;;;;;;;;;;;;;;;;5094013;28;1051;-77
2022/11/16 11:18:09;;;;;;;;;;;;;;;;;;5094044;28;1971;-76
2022/11/16 11:20:37;;;;;;;;;;;;;;;;;;5093981;28;1126;-77
2022/11/16 11:23:04;;;;;;;;;;;;;;;;;;5091397;28;1657;-78
2022/11/16 11:25:32;;;;;;;;;;;;;;;;;;5092673;28;913;-76
2022/11/16 11:28:03;;;;;;;;;;;;;;;;;;5093517;28;1118;-77
2022/11/16 11:30:30;;;;;;;;;;;;;;;;;;5093515;28;949;-77
2022/11/16 11:32:56;;;;;;;;;;;;;;;;;;5092720;28;1337;-76
2022/11/16 11:35:23;;;;;;;;;;;;;;;;;;5093492;28;1111;-76
2022/11/16 11:37:51;;;;;;;;;;;;;;;;;;5093459;28;1915;-77
2022/11/16 11:40:21;;;;;;;;;;;;;;;;;;5092868;28;1474;-77
2022/11/16 11:42:55;;;;;;;;;;;;;;;;;;5092833;28;1314;-76
2022/11/16 11:45:21;;;;;;;;;;;;;;;;;;5092338;28;1103;-77
2022/11/16 11:47:49;;;;;;;;;;;;;;;;;;5093292;28;959;-77
2022/11/16 11:50:16;;;;;;;;;;;;;;;;;;5093120;28;1071;-77
2022/11/16 11:52:44;;;;;;;;;;;;;;;;;;5091184;28;1430;-75
2022/11/16 11:55:14;;;;;;;;;;;;;;;;;;5092883;28;1236;-74
2022/11/16 11:57:42;;;;;;;;;;;;;;;;;;5092954;28;1925;-75
2022/11/16 12:00:11;;;;;;;;;;;;;;;;;;5093057;28;1067;-75
2022/11/16 12:02:41;;;;;;;;;;;;;;;;;;5089586;28;1329;-75
2022/11/16 12:05:25;;;;;;;;;;;;;;;;;;5092698;28;1067;-75
2022/11/16 12:07:54;;;;;;;;;;;;;;;;;;5092595;28;1389;-75
2022/11/16 12:10:25;;;;;;;;;;;;;;;;;;5092659;28;1338;-75
2022/11/16 12:12:55;;;;;;;;;;;;;;;;;;5091796;28;1399;-75
2022/11/16 12:15:32;;;;;;;;;;;;;;;;;;5092958;28;1091;-75
2022/11/16 12:18:02;;;;;;;;;;;;;;;;;;5091954;28;1918;-74
2022/11/16 12:20:30;;;;;;;;;;;;;;;;;;5096957;28;1119;-76
2022/11/16 12:23:09;;;;;;;;;;;;;;;;;;5105097;28;1422;-75
2022/11/16 12:25:37;;;;;;;;;;;;;;;;;;5102392;28;1171;-74
2022/11/16 12:28:09;;;;;;;;;;;;;;;;;;5091403;28;1112;-75
2022/11/16 12:30:37;;;;;;;;;;;;;;;;;;5092674;28;896;-75
2022/11/16 12:33:05;;;;;;;;;;;;;;;;;;5091553;28;1384;-75
2022/11/16 12:35:40;;;;;;;;;;;;;;;;;;5092728;28;1071;-74
2022/11/16 12:38:10;;;;;;;;;;;;;;;;;;5092246;28;1922;-75
2022/11/16 12:40:41;;;;;;;;;;;;;;;;;;5091857;28;1118;-75
2022/11/16 12:43:10;;;;;;;;;;;;;;;;;;5091218;28;1328;-75
2022/11/16 12:45:40;;;;;;;;;;;;;;;;;;5092147;28;1063;-76
2022/11/16 12:48:14;;;;;;;;;;;;;;;;;;5092016;28;1059;-75
2022/11/16 12:50:42;;;;;;;;;;;;;;;;;;5092049;28;1170;-75
2022/11/16 12:53:16;;;;;;;;;;;;;;;;;;5090853;28;1266;-75
2022/11/16 12:55:44;;;;;;;;;;;;;;;;;;5090480;28;1375;-75
2022/11/16 12:58:12;;;;;;;;;;;;;;;;;;5091549;28;1922;-75
2022/11/16 13:00:46;;;;;;;;;;;;;;;;;;5091906;28;1125;-74
2022/11/16 13:03:14;;;;;;;;;;;;;;;;;;5091003;28;1348;-75
2022/11/16 13:05:43;;;;;;;;;;;;;;;;;;5092028;28;1059;-76
2022/11/16 13:08:11;;;;;;;;;;;;;;;;;;5091643;28;851;-75
2022/11/16 13:10:37;;;;;;;;;;;;;;;;;;5090493;28;1240;-74
2022/11/16 13:13:09;;;;;;;;;;;;;;;;;;5090702;28;1309;-75
2022/11/16 13:15:36;;;;;;;;;;;;;;;;;;5089877;28;885;-75
2022/11/16 13:18:03;;;;;;;;;;;;;;;;;;5091425;28;1910;-75
2022/11/16 13:20:31;;;;;;;;;;;;;;;;;;5091271;28;963;-75
2022/11/16 13:22:58;;;;;;;;;;;;;;;;;;5089298;28;1392;-74
2022/11/16 13:25:25;;;;;;;;;;;;;;;;;;5090233;28;952;-75
2022/11/16 13:27:52;;;;;;;;;;;;;;;;;;5091544;28;1091;-75
2022/11/16 13:30:20;;;;;;;;;;;;;;;;;;5091032;28;1071;-74
2022/11/16 13:32:55;;;;;;;;;;;;;;;;;;5089383;28;1304;-75
2022/11/16 13:35:22;;;;;;;;;;;;;;;;;;5091355;28;1123;-76
2022/11/16 13:37:49;;;;;;;;;;;;;;;;;;5091473;28;2052;-76
2022/11/16 13:40:23;;;;;;;;;;;;;;;;;;5090737;28;1462;-75
2022/11/16 13:43:05;;;;;;;;;;;;;;;;;;5089274;28;1415;-73
2022/11/16 13:45:34;;;;;;;;;;;;;;;;;;5091327;28;598;-75
2022/11/16 13:48:00;;;;;;;;;;;;;;;;;;5091085;28;1103;-75
2022/11/16 13:50:29;;;;;;;;;;;;;;;;;;5089759;28;1227;-76
2022/11/16 13:52:56;;;;;;;;;;;;;;;;;;5090083;28;1284;-76
2022/11/16 13:55:26;;;;;;;;;;;;;;;;;;5089744;28;1239;-75
2022/11/16 13:57:52;;;;;;;;;;;;;;;;;;5090865;28;1976;-76
2022/11/16 14:00:22;;;;;;;;;;;;;;;;;;5090012;28;1237;-75
2022/11/16 14:02:50;;;;;;;;;;;;;;;;;;5090314;28;1320;-76
2022/11/16 14:05:16;;;;;;;;;;;;;;;;;;5090933;28;1110;-75
2022/11/16 14:07:45;;;;;;;;;;;;;;;;;;5091333;28;1617;-75
2022/11/16 14:10:11;;;;;;;;;;;;;;;;;;5090082;28;1137;-76
2022/11/16 14:12:56;;;;;;;;;;;;;;;;;;5088961;28;1409;-76
2022/11/16 14:15:23;;;;;;;;;;;;;;;;;;5090767;28;1130;-75
2022/11/16 14:17:52;;;;;;;;;;;;;;;;;;5090915;28;1910;-75
2022/11/16 14:20:34;;;;;;;;;;;;;;;;;;5089411;28;1139;-74
2022/11/16 14:23:02;;;;;;;;;;;;;;;;;;5089624;28;1461;-76
2022/11/16 14:25:29;;;;;;;;;;;;;;;;;;5091285;28;1136;-76
2022/11/16 14:27:58;;;;;;;;;;;;;;;;;;5094805;28;786;-75
2022/11/16 14:30:24;;;;;;;;;;;;;;;;;;5093978;28;767;-73
2022/11/16 14:32:52;;;;;;;;;;;;;;;;;;5093390;28;1427;-75
2022/11/16 14:35:27;;;;;;;;;;;;;;;;;;5093685;28;1052;-76
2022/11/16 14:37:55;;;;;;;;;;;;;;;;;;5094218;28;1980;-75
2022/11/16 14:40:22;;;;;;;;;;;;;;;;;;5094515;28;1063;-75
2022/11/16 14:42:49;;;;;;;;;;;;;;;;;;5093913;28;1362;-76
2022/11/16 14:45:16;;;;;;;;;;;;;;;;;;5094024;28;894;-75
2022/11/16 14:47:42;;;;;;;;;;;;;;;;;;5094205;28;1012;-75
2022/11/16 14:50:18;;;;;;;;;;;;;;;;;;5093111;28;1241;-75
2022/11/16 14:52:46;;;;;;;;;;;;;;;;;;5093412;28;1488;-73
2022/11/16 14:55:17;;;;;;;;;;;;;;;;;;5093408;28;1216;-76
2022/11/16 14:57:43;;;;;;;;;;;;;;;;;;5094395;28;1913;-76
2022/11/16 15:00:10;;;;;;;;;;;;;;;;;;5091938;28;869;-75
2022/11/16 15:02:36;;;;;;;;;;;;;;;;;;5089988;28;1326;-75
2022/11/16 15:05:03;;;;;;;;;;;;;;;;;;5090550;28;1087;-75
2022/11/16 15:07:30;;;;;;;;;;;;;;;;;;5090730;28;1141;-75
2022/11/16 15:09:58;;;;;;;;;;;;;;;;;;5092866;28;885;-76
2022/11/16 15:12:43;;;;;;;;;;;;;;;;;;5090981;28;1312;-75
2022/11/16 15:15:13;;;;;;;;;;;;;;;;;;5090333;28;722;-75
2022/11/16 15:17:40;;;;;;;;;;;;;;;;;;5092399;28;1965;-76
2022/11/16 15:20:14;;;;;;;;;;;;;;;;;;5092689;28;1205;-76
2022/11/16 15:22:42;;;;;;;;;;;;;;;;;;5105483;28;1308;-76
2022/11/16 15:25:22;;;;;;;;;;;;;;;;;;5108678;28;1051;-76
2022/11/16 15:27:48;;;;;;;;;;;;;;;;;;5094188;28;1075;-75
2022/11/16 15:30:15;;;;;;;;;;;;;;;;;;5092259;28;1192;-76
2022/11/16 15:32:42;;;;;;;;;;;;;;;;;;5104693;22;3564;-77
2022/11/16 15:35:12;;;;;;;;;;;;;;;;;;5077934;28;1065;-79
2022/11/16 15:37:38;;;;;;;;;;;;;;;;;;5077398;28;1965;-78
2022/11/16 15:40:08;;;;;;;;;;;;;;;;;;5077529;28;1128;-79
2022/11/16 15:42:35;;;;;;;;;;;;;;;;;;5077300;28;1404;-79
2022/11/16 15:45:01;;;;;;;;;;;;;;;;;;5057935;28;1131;-78
2022/11/16 15:47:27;;;;;;;;;;;;;;;;;;5057431;28;1392;-78
2022/11/16 15:49:54;;;;;;;;;;;;;;;;;;5056300;28;779;-78
2022/11/16 15:52:39;;;;;;;;;;;;;;;;;;5037884;28;1345;-77
2022/11/16 15:55:19;;;;;;;;;;;;;;;;;;5056107;28;1150;-78
2022/11/16 15:57:45;;;;;;;;;;;;;;;;;;5057167;28;1894;-78
2022/11/16 16:00:20;;;;;;;;;;;;;;;;;;5056431;28;1096;-79
2022/11/16 16:02:47;;;;;;;;;;;;;;;;;;5057706;28;1393;-79
2022/11/16 16:05:18;;;;;;;;;;;;;;;;;;5067877;28;1080;-79
2022/11/16 16:07:44;;;;;;;;;;;;;;;;;;5055005;28;1204;-79
2022/11/16 16:10:21;;;;;;;;;;;;;;;;;;5075025;28;1028;-80
2022/11/16 16:12:48;;;;;;;;;;;;;;;;;;5075855;28;1348;-78
2022/11/16 16:15:21;;;;;;;;;;;;;;;;;;5071858;28;1108;-80
2022/11/16 16:17:47;;;;;;;;;;;;;;;;;;5057310;28;1904;-78
2022/11/16 16:20:17;;;;;;;;;;;;;;;;;;5059258;28;926;-79
2022/11/16 16:22:43;;;;;;;;;;;;;;;;;;5058868;28;1267;-79
2022/11/16 16:25:24;;;;;;;;;;;;;;;;;;5058943;28;1092;-80
2022/11/16 16:27:52;;;;;;;;;;;;;;;;;;5060144;28;1064;-80
2022/11/16 16:30:18;;;;;;;;;;;;;;;;;;5058795;28;973;-80
2022/11/16 16:32:48;;;;;;;;;;;;;;;;;;5057579;28;1357;-79
2022/11/16 16:35:16;;;;;;;;;;;;;;;;;;5058557;28;1092;-80
2022/11/16 16:37:42;;;;;;;;;;;;;;;;;;5039839;28;1895;-80
2022/11/16 16:40:09;;;;;;;;;;;;;;;;;;5057975;28;1144;-80
2022/11/16 16:42:35;;;;;;;;;;;;;;;;;;5057229;28;1403;-80
2022/11/16 16:45:03;;;;;;;;;;;;;;;;;;5057822;28;942;-80
2022/11/16 16:47:29;;;;;;;;;;;;;;;;;;5056178;28;1427;-78
2022/11/16 16:49:55;;;;;;;;;;;;;;;;;;5056292;28;932;-79
2022/11/16 16:52:21;;;;;;;;;;;;;;;;;;5056962;28;1343;-80
2022/11/16 16:54:47;;;;;;;;;;;;;;;;;;5039192;28;1171;-80
2022/11/16 16:57:14;;;;;;;;;;;;;;;;;;5056667;28;1213;-79
2022/11/16 16:59:41;;;;;;;;;;;;;;;;;;5055891;28;1914;-80
2022/11/16 17:02:10;;;;;;;;;;;;;;;;;;5056009;28;1106;-80
2022/11/16 17:04:36;;;;;;;;;;;;;;;;;;5057178;28;1389;-80
2022/11/16 17:07:02;;;;;;;;;;;;;;;;;;5057154;28;1056;-79
2022/11/16 17:09:29;;;;;;;;;;;;;;;;;;5056847;28;921;-79
2022/11/16 17:11:55;;;;;;;;;;;;;;;;;;5055544;28;974;-79
2022/11/16 17:14:23;;;;;;;;;;;;;;;;;;5055958;28;1377;-80
2022/11/16 17:16:49;;;;;;;;;;;;;;;;;;5056583;28;862;-79
2022/11/16 17:19:17;;;;;;;;;;;;;;;;;;5055877;28;1899;-80
2022/11/16 17:21:43;;;;;;;;;;;;;;;;;;5055109;28;736;-80
2022/11/16 17:24:10;;;;;;;;;;;;;;;;;;5056303;28;1281;-80
2022/11/16 17:26:37;;;;;;;;;;;;;;;;;;5038558;28;1244;-79
2022/11/16 17:29:03;;;;;;;;;;;;;;;;;;5056350;28;1200;-78
2022/11/16 17:31:29;;;;;;;;;;;;;;;;;;5055502;28;1064;-79
2022/11/16 17:33:56;;;;;;;;;;;;;;;;;;5055876;28;1317;-79
2022/11/16 17:36:24;;;;;;;;;;;;;;;;;;5055011;28;2099;-79
2022/11/16 17:38:50;;;;;;;;;;;;;;;;;;5037707;28;1977;-79
2022/11/16 17:41:17;;;;;;;;;;;;;;;;;;5057069;28;949;-77
2022/11/16 17:43:44;;;;;;;;;;;;;;;;;;5069318;28;1400;-79
2022/11/16 17:46:10;;;;;;;;;;;;;;;;;;5068515;28;1038;-79
2022/11/16 17:48:37;;;;;;;;;;;;;;;;;;5058656;28;1079;-79
2022/11/16 17:51:03;;;;;;;;;;;;;;;;;;5056927;28;1068;-79
2022/11/16 17:53:32;;;;;;;;;;;;;;;;;;5056165;28;1287;-79
2022/11/16 17:55:58;;;;;;;;;;;;;;;;;;5055582;28;1515;-79